Time;durP1;ratioP1;P1;durP2;ratioP2;P2;SDS_P1;SDS_P2;PMS_P1;PMS_P2;Temp;Humidity;BMP_temperature;BMP_pressure;BME280_temperature;BME280_humidity;BME280_pressure;Samples;Min_cycle;Max_cycle;Signal;HPM_P1;HPM_P2
2022/08/01 00:01:13;;;;;;;26.58;14.88;;;;;;;19.61;90.06;101502.25;5051256;28;20048;-76
2022/08/01 00:03:41;;;;;;;23.80;14.25;;;;;;;19.58;90.02;101503.31;5051254;28;20041;-75
2022/08/01 00:06:08;;;;;;;28.48;14.82;;;;;;;19.60;90.05;101501.41;5050818;28;20049;-76
2022/08/01 00:08:35;;;;;;;19.75;14.38;;;;;;;19.59;90.33;101504.16;5051041;28;20049;-75
2022/08/01 00:11:02;;;;;;;26.75;15.90;;;;;;;19.60;90.05;101503.19;5049844;28;20041;-74
2022/08/01 00:13:29;;;;;;;22.45;15.55;;;;;;;19.58;90.04;101511.31;5056162;28;20047;-76
2022/08/01 00:15:59;;;;;;;25.80;15.35;;;;;;;19.58;90.31;101508.66;5052819;28;20109;-76
2022/08/01 00:18:26;;;;;;;23.75;14.40;;;;;;;19.58;90.33;101505.97;5051430;28;20470;-75
2022/08/01 00:20:53;;;;;;;23.52;15.43;;;;;;;19.58;90.36;101505.97;5050192;28;20140;-75
2022/08/01 00:23:21;;;;;;;28.77;14.70;;;;;;;19.58;90.39;101505.13;5050579;28;20509;-75
2022/08/01 00:25:48;;;;;;;24.92;15.45;;;;;;;19.61;90.00;101507.59;5048681;28;20043;-75
2022/08/01 00:28:16;;;;;;;26.33;15.15;;;;;;;19.59;90.37;101502.34;5049668;28;20037;-75
2022/08/01 00:30:43;;;;;;;22.83;14.88;;;;;;;19.60;90.13;101509.44;5054942;28;20062;-75
2022/08/01 00:33:10;;;;;;;23.02;14.00;;;;;;;19.60;90.15;101516.56;5050944;28;20525;-75
2022/08/01 00:35:37;;;;;;;23.75;13.52;;;;;;;19.59;90.13;101509.50;5047988;28;20116;-75
2022/08/01 00:38:07;;;;;;;22.35;14.35;;;;;;;19.58;90.31;101514.00;5050295;28;20042;-75
2022/08/01 00:40:35;;;;;;;24.02;15.43;;;;;;;19.59;90.48;101510.38;5050143;28;20038;-75
2022/08/01 00:43:02;;;;;;;22.90;14.48;;;;;;;19.59;90.24;101507.69;5050985;28;20047;-73
2022/08/01 00:45:30;;;;;;;20.55;14.13;;;;;;;19.59;90.00;101507.69;5048725;28;20045;-74
2022/08/01 00:47:57;;;;;;;20.45;13.68;;;;;;;19.57;89.96;101511.41;5050998;28;20112;-74
2022/08/01 00:50:24;;;;;;;21.23;14.00;;;;;;;19.57;89.70;101522.13;5049782;28;20769;-74
2022/08/01 00:52:53;;;;;;;24.65;15.32;;;;;;;19.51;89.66;101520.66;5045020;28;20049;-75
2022/08/01 00:55:20;;;;;;;25.48;14.77;;;;;;;19.46;90.01;101523.59;5047179;28;20043;-74
2022/08/01 00:57:49;;;;;;;28.27;16.52;;;;;;;19.39;90.71;101519.53;5048806;28;20520;-74
2022/08/01 01:00:34;;;;;;;26.38;16.98;;;;;;;19.35;90.80;101516.16;5045015;28;20116;-74
2022/08/01 01:03:22;;;;;;;27.05;17.38;;;;;;;19.31;91.09;101519.09;5047091;28;20049;-74
2022/08/01 01:06:44;;;;;;;24.40;14.10;;;;;;;19.28;90.67;101520.16;5043820;28;20042;-76
2022/08/01 01:09:30;;;;;;;18.20;13.45;;;;;;;19.22;90.68;101518.69;5045284;28;20041;-76
2022/08/01 01:12:42;;;;;;;18.65;13.48;;;;;;;19.18;89.58;101522.47;5039095;28;20052;-75
2022/08/01 01:15:26;;;;;;;18.05;10.48;;;;;;;19.13;88.99;101519.19;5048165;28;20049;-74
2022/08/01 01:18:01;;;;;;;13.23;10.20;;;;;;;19.08;88.75;101521.25;5046686;28;20049;-74
2022/08/01 01:20:35;;;;;;;13.50;9.33;;;;;;;19.05;88.82;101519.63;5009817;28;1071573;-74
2022/08/01 01:23:34;;;;;;;13.48;8.90;;;;;;;19.03;88.79;101526.00;5050206;28;20701;-74
2022/08/01 01:26:28;;;;;;;10.45;7.53;;;;;;;19.03;88.60;101528.69;5048149;28;22121;-74
2022/08/01 01:29:08;;;;;;;10.65;6.55;;;;;;;19.00;88.05;101529.72;5044714;28;20108;-73
2022/08/01 01:32:01;;;;;;;14.77;7.95;;;;;;;18.99;87.57;101535.13;5048413;28;20038;-74
2022/08/01 01:34:36;;;;;;;11.35;7.28;;;;;;;18.98;88.04;101530.72;5040933;28;20156;-74
2022/08/01 01:37:11;;;;;;;13.00;7.45;;;;;;;18.96;88.28;101536.16;5046543;28;20049;-76
2022/08/01 01:39:41;;;;;;;;;;;;;;;18.97;88.31;101540.56;5053262;28;20423;-76
2022/08/01 01:42:25;;;;;;;11.73;7.95;;;;;;;18.99;88.38;101532.44;5049475;28;20392;-76
2022/08/01 01:44:54;;;;;;;12.52;8.32;;;;;;;18.97;88.73;101529.03;5049422;28;20060;-75
2022/08/01 01:47:26;;;;;;;13.77;8.48;;;;;;;18.97;88.82;101537.88;5046536;28;20089;-76
2022/08/01 01:49:56;;;;;;;13.60;9.50;;;;;;;18.97;89.15;101532.53;5049445;28;20040;-75
2022/08/01 01:52:26;;;;;;;14.80;9.73;;;;;;;18.94;89.55;101527.34;5049415;28;20037;-75
2022/08/01 01:54:56;;;;;;;17.08;10.52;;;;;;;18.97;89.59;101535.22;5047585;28;20038;-76
2022/08/01 01:57:25;;;;;;;18.85;10.88;;;;;;;18.93;89.85;101522.97;5046162;28;20041;-77
2022/08/01 01:59:55;;;;;;;17.13;10.40;;;;;;;18.93;89.76;101525.63;5046761;28;20511;-73
2022/08/01 02:02:24;;;;;;;18.33;10.00;;;;;;;18.92;89.98;101529.25;5048417;28;20045;-74
2022/08/01 02:04:54;;;;;;;15.60;10.25;;;;;;;18.92;90.13;101529.25;5049378;28;20038;-75
2022/08/01 02:07:26;;;;;;;17.17;10.50;;;;;;;18.91;89.93;101522.19;5050847;28;20037;-75
2022/08/01 02:09:56;;;;;;;16.13;10.70;;;;;;;18.89;89.79;101532.91;5044706;28;20044;-75
2022/08/01 02:12:24;;;;;;;15.48;10.85;;;;;;;18.88;89.72;101522.34;5050160;28;20037;-75
2022/08/01 02:14:55;;;;;;;16.08;9.88;;;;;;;18.90;89.43;101534.66;5053594;28;20038;-75
2022/08/01 02:17:25;;;;;;;14.43;9.52;;;;;;;18.86;89.13;101529.56;5052493;28;20048;-75
2022/08/01 02:19:54;;;;;;;19.13;10.60;;;;;;;18.85;88.99;101534.06;5053242;28;20469;-76
2022/08/01 02:22:33;;;;;;;17.67;9.98;;;;;;;18.85;89.39;101536.72;5052525;28;20502;-75
2022/08/01 02:25:26;;;;;;;15.50;9.57;;;;;;;18.83;89.46;101537.72;5051376;28;20136;-75
2022/08/01 02:28:12;;;;;;;15.48;9.30;;;;;;;18.80;89.01;101527.22;5044850;28;20065;-75
2022/08/01 02:30:45;;;;;;;18.92;10.70;;;;;;;18.77;89.38;101522.94;5060470;28;20890;-76
2022/08/01 02:33:27;;;;;;;14.30;10.00;;;;;;;18.71;89.02;101518.78;5053004;28;20500;-75
2022/08/01 02:36:02;;;;;;;17.67;10.95;;;;;;;18.66;89.49;101525.31;5056200;28;20830;-75
2022/08/01 02:38:52;;;;;;;15.30;10.65;;;;;;;18.63;89.74;101520.97;5052067;28;20076;-76
2022/08/01 02:41:23;;;;;;;15.93;10.32;;;;;;;18.60;89.57;101522.00;5052936;28;20033;-75
2022/08/01 02:43:58;;;;;;;21.65;11.05;;;;;;;18.58;90.03;101523.91;5053639;28;20509;-76
2022/08/01 02:46:36;;;;;;;16.98;10.50;;;;;;;18.58;90.00;101525.72;5060468;28;20033;-75
2022/08/01 02:49:07;;;;;;;17.83;11.50;;;;;;;18.56;90.33;101523.13;5053192;28;20073;-75
2022/08/01 02:51:38;;;;;;;22.80;11.82;;;;;;;18.53;90.13;101528.63;5044769;28;20049;-75
2022/08/01 02:54:09;;;;;;;15.73;10.88;;;;;;;18.53;90.48;101538.44;5051421;28;20052;-75
2022/08/01 02:56:40;;;;;;;18.38;11.25;;;;;;;18.50;90.33;101531.44;5052927;28;20503;-74
2022/08/01 02:59:14;;;;;;;21.30;12.35;;;;;;;18.47;90.76;101534.28;5051337;28;20075;-74
2022/08/01 03:01:47;;;;;;;17.15;11.73;;;;;;;18.51;91.01;101535.00;5053104;28;20049;-74
2022/08/01 03:04:18;;;;;;;21.15;13.00;;;;;;;18.48;91.50;101522.66;5052706;28;20037;-74
2022/08/01 03:06:48;;;;;;;19.27;12.07;;;;;;;18.53;91.62;101528.63;5048356;28;20049;-73
2022/08/01 03:09:18;;;;;;;17.10;11.02;;;;;;;18.56;90.98;101536.50;5047434;28;20045;-73
2022/08/01 03:11:47;;;;;;;19.27;11.18;;;;;;;18.56;90.64;101539.16;5052870;28;20045;-73
2022/08/01 03:14:17;;;;;;;16.85;10.35;;;;;;;18.55;90.06;101537.44;5051551;28;20052;-73
2022/08/01 03:16:46;;;;;;;17.35;11.80;;;;;;;18.49;90.11;101532.41;5052425;28;20049;-73
2022/08/01 03:19:17;;;;;;;19.92;11.00;;;;;;;18.44;90.33;101537.13;5051102;28;20043;-74
2022/08/01 03:21:48;;;;;;;17.73;11.18;;;;;;;18.41;90.12;101531.94;5050419;28;20058;-74
2022/08/01 03:24:18;;;;;;;20.75;11.10;;;;;;;18.37;90.03;101536.59;5051154;28;20527;-74
2022/08/01 03:26:48;;;;;;;18.48;10.80;;;;;;;18.36;90.37;101537.53;5048117;28;20041;-74
2022/08/01 03:29:25;;;;;;;18.25;11.73;;;;;;;18.39;90.34;101528.47;5046973;28;20052;-73
2022/08/01 03:31:53;;;;;;;17.88;11.00;;;;;;;18.37;90.62;101528.56;5052303;28;20042;-75
2022/08/01 03:34:22;;;;;;;16.67;10.35;;;;;;;18.36;90.46;101531.34;5050580;28;20049;-75
2022/08/01 03:37:20;;;;;;;18.08;10.38;;;;;;;18.37;90.77;101533.03;5051636;28;20045;-75
2022/08/01 03:39:57;;;;;;;18.88;11.30;;;;;;;18.35;90.39;101532.28;5050515;28;20447;-75
2022/08/01 03:42:56;;;;;;;17.45;10.60;;;;;;;18.34;90.43;101539.41;5049665;28;20084;-75
2022/08/01 03:45:30;;;;;;;18.15;10.60;;;;;;;18.34;90.83;101542.06;5051188;28;20033;-75
2022/08/01 03:48:14;;;;;;;19.92;10.90;;;;;;;18.36;90.64;101544.69;5051119;28;20124;-75
2022/08/01 03:50:46;;;;;;;17.67;11.20;;;;;;;18.34;90.62;101538.56;5049535;28;20041;-75
2022/08/01 03:53:19;;;;;;;17.88;11.57;;;;;;;18.26;90.62;101544.28;5050071;28;20042;-75
2022/08/01 03:55:47;;;;;;;19.67;10.10;;;;;;;18.24;90.69;101541.69;5045603;28;20046;-76
2022/08/01 03:58:16;;;;;;;17.63;10.98;;;;;;;18.21;91.12;101541.00;5050532;28;20047;-75
2022/08/01 04:00:46;;;;;;;19.95;11.23;;;;;;;18.20;90.91;101556.13;5044719;28;20045;-75
2022/08/01 04:03:14;;;;;;;18.52;10.32;;;;;;;18.20;91.16;101558.78;5049697;28;20037;-74
2022/08/01 04:05:43;;;;;;;17.08;11.15;;;;;;;18.22;91.50;101556.03;5050698;28;20052;-74
2022/08/01 04:08:10;;;;;;;19.20;10.88;;;;;;;18.25;91.33;101555.88;5051045;28;20124;-74
2022/08/01 04:10:38;;;;;;;18.85;11.45;;;;;;;18.26;91.34;101558.47;5046978;28;20855;-74
2022/08/01 04:13:05;;;;;;;19.05;10.90;;;;;;;18.28;91.04;101553.94;5049898;28;22133;-75
2022/08/01 04:15:32;;;;;;;20.40;11.63;;;;;;;18.29;91.14;101552.97;5050467;28;20046;-75
2022/08/01 04:17:59;;;;;;;18.80;11.88;;;;;;;18.30;91.12;101549.38;5050243;28;20566;-75
2022/08/01 04:20:26;;;;;;;17.85;11.10;;;;;;;18.33;91.18;101560.84;5049639;28;20095;-75
2022/08/01 04:22:54;;;;;;;20.40;13.02;;;;;;;18.33;91.26;101559.03;5049231;28;20152;-75
2022/08/01 04:25:36;;;;;;;19.00;11.65;;;;;;;18.39;91.30;101557.84;5049565;28;20041;-74
2022/08/01 04:28:07;;;;;;;18.70;11.00;;;;;;;18.38;90.98;101561.44;5054456;28;20486;-74
2022/08/01 04:30:38;;;;;;;17.08;11.07;;;;;;;18.39;91.17;101563.19;5050272;28;20112;-75
2022/08/01 04:33:09;;;;;;;18.92;11.38;;;;;;;18.39;91.06;101561.41;5063648;28;20046;-74
2022/08/01 04:35:41;;;;;;;19.50;12.52;;;;;;;18.40;90.92;101562.25;5047028;28;20048;-73
2022/08/01 04:38:31;;;;;;;20.63;11.77;;;;;;;18.43;91.14;101573.63;5049188;28;20068;-73
2022/08/01 04:41:01;;;;;;;25.15;13.43;;;;;;;18.45;90.80;101576.22;5047090;28;20508;-74
2022/08/01 04:43:39;;;;;;;20.52;12.88;;;;;;;18.46;90.68;101575.28;5048675;28;20038;-73
2022/08/01 04:46:08;;;;;;;20.92;12.45;;;;;;;18.49;90.71;101579.59;5047853;28;20553;-72
2022/08/01 04:48:38;;;;;;;20.75;12.60;;;;;;;18.52;90.63;101577.63;5048433;28;20386;-72
2022/08/01 04:51:15;;;;;;;20.17;12.60;;;;;;;18.53;90.53;101579.34;5046101;28;20053;-73
2022/08/01 04:53:45;;;;;;;22.50;13.45;;;;;;;18.54;90.92;101581.09;5049020;28;20172;-73
2022/08/01 04:56:13;;;;;;;23.35;11.68;;;;;;;18.60;90.80;101587.91;5049188;28;20048;-73
2022/08/01 04:58:41;;;;;;;16.75;10.88;;;;;;;18.67;90.35;101586.63;5052311;28;20038;-73
2022/08/01 05:01:10;;;;;;;14.27;9.23;;;;;;;18.72;90.07;101584.56;5045817;28;20044;-73
2022/08/01 05:03:39;;;;;;;20.00;11.40;;;;;;;18.77;89.99;101579.00;5049873;28;20049;-73
2022/08/01 05:06:06;;;;;;;19.70;11.52;;;;;;;18.83;89.65;101580.47;5049891;28;20038;-73
2022/08/01 05:08:34;;;;;;;19.50;12.05;;;;;;;18.88;88.92;101581.94;5046472;28;20045;-72
2022/08/01 05:11:01;;;;;;;20.98;13.25;;;;;;;18.90;88.78;101580.06;5048624;28;20053;-72
2022/08/01 05:13:28;;;;;;;19.92;12.40;;;;;;;18.93;88.89;101582.63;5051518;28;20042;-75
2022/08/01 05:15:55;;;;;;;21.10;13.07;;;;;;;19.03;88.44;101582.13;5049517;28;20092;-73
2022/08/01 05:18:22;;;;;;;19.38;13.20;;;;;;;19.11;87.87;101589.72;5050024;28;20042;-73
2022/08/01 05:20:54;;;;;;;22.10;12.73;;;;;;;19.14;87.77;101590.41;5049197;28;20138;-73
2022/08/01 05:23:23;;;;;;;19.73;12.68;;;;;;;19.16;87.65;101601.00;5053109;28;20049;-73
2022/08/01 05:26:10;;;;;;;20.83;12.48;;;;;;;19.16;87.86;101603.69;5047039;28;20044;-72
2022/08/01 05:28:41;;;;;;;21.83;13.63;;;;;;;19.18;88.24;101599.13;5048521;28;20575;-74
2022/08/01 05:31:09;;;;;;;21.70;14.00;;;;;;;19.23;88.28;101597.91;5050021;28;20061;-72
2022/08/01 05:33:36;;;;;;;21.25;11.60;;;;;;;19.26;87.86;101599.56;5052507;28;20092;-73
2022/08/01 05:36:03;;;;;;;18.50;10.93;;;;;;;19.32;86.47;101609.03;5050814;28;20463;-73
2022/08/01 05:38:30;;;;;;;20.85;12.10;;;;;;;19.37;86.75;101613.19;5050100;28;20044;-73
2022/08/01 05:40:57;;;;;;;17.98;10.60;;;;;;;19.46;85.37;101609.16;5047902;28;20046;-74
2022/08/01 05:43:26;;;;;;;19.98;11.32;;;;;;;19.41;85.26;101605.84;5052574;28;20042;-73
2022/08/01 05:45:55;;;;;;;19.48;11.38;;;;;;;19.34;85.65;101608.00;5051090;28;20041;-73
2022/08/01 05:48:22;;;;;;;15.40;9.68;;;;;;;19.29;85.80;101606.53;5050910;28;20044;-73
2022/08/01 05:50:50;;;;;;;19.67;10.80;;;;;;;19.27;85.41;101603.09;5051032;28;20036;-73
2022/08/01 05:53:24;;;;;;;15.32;9.63;;;;;;;19.28;85.90;101608.34;5052024;28;20125;-74
2022/08/01 05:55:52;;;;;;;14.93;9.77;;;;;;;19.28;85.21;101600.34;5049994;28;20510;-72
2022/08/01 05:58:20;;;;;;;16.70;9.48;;;;;;;19.30;85.57;101606.47;5049441;28;20045;-73
2022/08/01 06:00:47;;;;;;;13.48;8.52;;;;;;;19.32;85.87;101601.03;5049637;28;20042;-74
2022/08/01 06:03:16;;;;;;;14.82;9.25;;;;;;;19.45;85.04;101607.44;5067594;28;20550;-73
2022/08/01 06:05:44;;;;;;;17.92;9.45;;;;;;;19.56;84.73;101606.81;5052311;28;20117;-74
2022/08/01 06:08:11;;;;;;;14.38;8.25;;;;;;;19.70;84.04;101606.03;5050756;28;20044;-73
2022/08/01 06:10:38;;;;;;;12.23;8.57;;;;;;;19.86;83.80;101616.75;5051729;28;20042;-73
2022/08/01 06:13:06;;;;;;;12.13;7.30;;;;;;;20.17;81.92;101615.84;5054224;28;20049;-72
2022/08/01 06:15:34;;;;;;;15.98;7.88;;;;;;;20.23;81.68;101613.75;5052746;28;20044;-72
2022/08/01 06:18:02;;;;;;;9.32;7.10;;;;;;;20.27;81.26;101615.31;5051998;28;20037;-72
2022/08/01 06:20:29;;;;;;;12.60;6.43;;;;;;;20.24;80.79;101618.16;5052972;28;20436;-71
2022/08/01 06:22:56;;;;;;;10.93;7.25;;;;;;;20.22;80.41;101612.91;5047483;28;20042;-71
2022/08/01 06:25:26;;;;;;;11.98;6.93;;;;;;;20.24;80.13;101613.69;5052335;28;20092;-71
2022/08/01 06:27:55;;;;;;;9.60;6.65;;;;;;;20.26;79.88;101613.56;5052189;28;20901;-72
2022/08/01 06:30:22;;;;;;;9.45;7.25;;;;;;;20.21;79.63;101618.31;5052184;28;20041;-73
2022/08/01 06:32:49;;;;;;;11.43;7.25;;;;;;;20.15;80.41;101612.41;5048538;28;20033;-73
2022/08/01 06:35:17;;;;;;;12.68;6.90;;;;;;;20.16;81.16;101607.88;5053045;28;20045;-72
2022/08/01 06:37:46;;;;;;;7.93;6.25;;;;;;;20.23;80.48;101614.63;5053259;28;20046;-73
2022/08/01 06:40:14;;;;;;;10.23;7.00;;;;;;;20.24;80.12;101612.78;5054191;28;20038;-72
2022/08/01 06:42:45;;;;;;;7.25;6.10;;;;;;;20.24;79.59;101626.19;5059544;28;20452;-72
2022/08/01 06:45:15;;;;;;;9.93;5.65;;;;;;;20.26;79.17;101617.09;5052777;28;20041;-72
2022/08/01 06:47:44;;;;;;;9.70;5.75;;;;;;;20.25;78.85;101626.06;5052869;28;20164;-72
2022/08/01 06:50:17;;;;;;;11.18;5.72;;;;;;;20.25;80.19;101630.59;5051937;28;20393;-72
2022/08/01 06:52:45;;;;;;;6.57;5.03;;;;;;;20.28;79.22;101631.25;5051761;28;20053;-72
2022/08/01 06:55:12;;;;;;;8.95;5.18;;;;;;;20.36;79.93;101632.63;5052769;28;20069;-72
2022/08/01 06:57:48;;;;;;;6.03;4.90;;;;;;;20.44;79.37;101635.72;5052319;28;20046;-72
2022/08/01 07:00:20;;;;;;;9.02;4.15;;;;;;;20.48;77.84;101632.78;5050185;28;20073;-71
2022/08/01 07:02:50;;;;;;;6.25;4.20;;;;;;;20.52;78.18;101635.25;5048416;28;20047;-72
2022/08/01 07:05:17;;;;;;;8.82;4.38;;;;;;;20.69;77.94;101634.22;5051524;28;20038;-72
2022/08/01 07:07:44;;;;;;;5.65;3.55;;;;;;;20.86;77.09;101630.56;5045941;28;20045;-72
2022/08/01 07:10:12;;;;;;;7.15;4.10;;;;;;;20.95;76.81;101630.00;5052912;28;20108;-72
2022/08/01 07:12:40;;;;;;;9.98;4.13;;;;;;;21.03;76.49;101629.53;5050527;28;20033;-71
2022/08/01 07:15:11;;;;;;;5.20;3.55;;;;;;;21.10;75.57;101629.06;5052685;28;20103;-71
2022/08/01 07:17:42;;;;;;;6.32;3.03;;;;;;;21.09;73.96;101630.00;5051752;28;20041;-71
2022/08/01 07:20:12;;;;;;;5.82;3.15;;;;;;;21.12;74.48;101625.38;5053030;28;20078;-71
2022/08/01 07:22:42;;;;;;;4.93;2.80;;;;;;;21.29;73.79;101625.22;5051301;28;20068;-71
2022/08/01 07:25:13;;;;;;;6.25;2.60;;;;;;;21.41;73.58;101631.59;5050255;28;20041;-72
2022/08/01 07:27:40;;;;;;;4.32;2.40;;;;;;;21.53;73.39;101632.63;5051594;28;20041;-72
2022/08/01 07:30:08;;;;;;;4.63;2.15;;;;;;;21.66;73.43;101633.59;5051607;28;20095;-72
2022/08/01 07:32:35;;;;;;;4.40;1.95;;;;;;;21.83;73.29;101632.50;5051364;28;20150;-72
2022/08/01 07:35:12;;;;;;;4.75;2.20;;;;;;;;;;5051757;28;20526;-72
2022/08/01 07:37:42;;;;;;;7.57;2.35;;;;;;;22.36;69.01;101636.19;5051752;28;20905;-73
2022/08/01 07:40:17;;;;;;;10.80;2.30;;;;;;;22.50;69.54;101633.47;5051141;28;20047;-72
2022/08/01 07:42:45;;;;;;;5.10;3.10;;;;;;;22.58;68.27;101641.88;5049237;28;20511;-72
2022/08/01 07:45:14;;;;;;;6.30;3.20;;;;;;;22.56;68.22;101645.63;5050418;28;20055;-74
2022/08/01 07:47:41;;;;;;;7.38;3.63;;;;;;;22.53;68.93;101643.16;5051065;28;20068;-73
2022/08/01 07:50:09;;;;;;;6.18;3.83;;;;;;;22.37;68.49;101657.59;5049163;28;20044;-75
2022/08/01 07:52:36;;;;;;;6.15;3.65;;;;;;;22.20;69.21;101650.69;5051914;28;20692;-74
2022/08/01 07:55:04;;;;;;;5.60;3.97;;;;;;;22.02;68.83;101650.94;5050392;28;20045;-73
2022/08/01 07:57:31;;;;;;;4.93;3.78;;;;;;;21.83;69.39;101658.47;5051875;28;20042;-73
2022/08/01 08:00:00;;;;;;;4.78;4.18;;;;;;;21.70;69.92;101661.09;5047004;28;20892;-76
2022/08/01 08:02:29;;;;;;;10.55;4.07;;;;;;;21.65;70.64;101660.53;5051128;28;20041;-75
2022/08/01 08:04:57;;;;;;;7.68;4.10;;;;;;;21.65;71.22;101663.22;5050854;28;20759;-77
2022/08/01 08:07:24;;;;;;;4.40;3.40;;;;;;;21.76;70.13;101657.13;5050409;28;20053;-75
2022/08/01 08:09:52;;;;;;;13.73;3.65;;;;;;;21.85;69.98;101656.53;5046400;28;20551;-75
2022/08/01 08:12:19;;;;;;;5.63;3.60;;;;;;;21.95;69.79;101659.50;5049873;28;20052;-74
2022/08/01 08:14:58;;;;;;;8.43;3.60;;;;;;;22.05;69.93;101665.97;5046501;28;20041;-76
2022/08/01 08:17:26;;;;;;;5.65;3.55;;;;;;;22.24;69.51;101656.69;5050627;28;20132;-76
2022/08/01 08:19:53;;;;;;;7.00;3.20;;;;;;;22.53;68.81;101654.78;5049298;28;20044;-74
2022/08/01 08:22:20;;;;;;;4.25;1.90;;;;;;;22.73;67.20;101657.91;5050037;28;20076;-75
2022/08/01 08:24:47;;;;;;;3.85;2.13;;;;;;;22.72;66.32;101658.88;5050184;28;20135;-75
2022/08/01 08:27:15;;;;;;;4.10;2.40;;;;;;;22.63;66.33;101666.59;5050551;28;20120;-75
2022/08/01 08:29:42;;;;;;;9.57;2.90;;;;;;;22.65;66.88;101666.50;5048156;28;20092;-74
2022/08/01 08:32:11;;;;;;;6.43;2.53;;;;;;;22.72;67.35;101661.56;5050359;28;20111;-73
2022/08/01 08:34:38;;;;;;;5.47;1.98;;;;;;;22.88;67.54;101667.56;5050174;28;20045;-72
2022/08/01 08:37:05;;;;;;;3.05;1.17;;;;;;;23.02;66.12;101657.69;5050631;28;20854;-73
2022/08/01 08:39:35;;;;;;;2.58;0.90;;;;;;;23.21;64.39;101662.66;5050506;28;20473;-73
2022/08/01 08:42:10;;;;;;;2.58;0.68;;;;;;;23.05;62.88;101669.09;5066066;28;20741;-72
2022/08/01 08:44:42;;;;;;;1.00;0.60;;;;;;;22.92;62.50;101668.22;5069910;28;20049;-73
2022/08/01 08:47:13;;;;;;;0.60;0.50;;;;;;;22.86;63.54;101665.97;5047395;28;20045;-73
2022/08/01 08:49:47;;;;;;;2.35;0.70;;;;;;;22.92;63.35;101665.53;5048649;28;20409;-71
2022/08/01 08:52:20;;;;;;;0.88;0.52;;;;;;;22.90;63.58;101673.72;5047704;28;20041;-72
2022/08/01 08:54:51;;;;;;;1.75;0.63;;;;;;;22.91;63.27;101674.56;5050168;28;20119;-73
2022/08/01 08:57:20;;;;;;;1.00;0.70;;;;;;;22.82;63.79;101673.41;5049681;28;20132;-72
2022/08/01 08:59:51;;;;;;;0.50;0.50;;;;;;;22.96;63.45;101665.22;5049264;28;20076;-74
2022/08/01 09:02:19;;;;;;;2.10;0.60;;;;;;;23.14;64.48;101666.72;5050022;28;20076;-72
2022/08/01 09:04:49;;;;;;;0.80;0.70;;;;;;;23.35;62.71;101672.44;5049501;28;20045;-73
2022/08/01 09:07:17;;;;;;;0.90;0.60;;;;;;;23.30;64.04;101670.06;5049248;28;20088;-74
2022/08/01 09:09:44;;;;;;;1.10;0.60;;;;;;;23.52;61.63;101669.41;5047854;28;20552;-75
2022/08/01 09:12:18;;;;;;;1.15;0.60;;;;;;;23.66;61.87;101667.50;5050510;28;20038;-74
2022/08/01 09:14:47;;;;;;;1.80;0.73;;;;;;;23.80;61.87;101685.38;5050270;28;20050;-73
2022/08/01 09:17:14;;;;;;;2.70;0.60;;;;;;;23.88;60.89;101686.50;5053462;28;20073;-73
2022/08/01 09:19:47;;;;;;;1.55;0.60;;;;;;;23.98;61.16;101688.53;5051686;28;20125;-73
2022/08/01 09:22:40;;;;;;;1.77;0.60;;;;;;;24.14;59.91;101689.13;5052263;28;20062;-73
2022/08/01 09:25:13;;;;;;;10.38;1.20;;;;;;;24.35;60.12;101688.50;5052822;28;20104;-74
2022/08/01 09:27:41;;;;;;;1.05;0.57;;;;;;;24.41;58.44;101695.25;5053532;28;20065;-75
2022/08/01 09:30:18;;;;;;;1.50;0.70;;;;;;;24.31;58.95;101695.97;5051522;28;20037;-73
2022/08/01 09:33:01;;;;;;;1.15;0.50;;;;;;;24.24;58.56;101704.59;5052156;28;20056;-73
2022/08/01 09:35:56;;;;;;;1.02;0.52;;;;;;;23.99;59.05;101693.84;5053601;28;20481;-72
2022/08/01 09:38:28;;;;;;;3.22;0.82;;;;;;;23.92;60.55;101697.91;5055749;28;20092;-72
2022/08/01 09:41:00;;;;;;;1.27;0.57;;;;;;;23.87;60.61;101700.94;5050733;28;20069;-72
2022/08/01 09:43:30;;;;;;;3.22;0.60;;;;;;;24.14;59.88;101699.03;5051094;28;20045;-73
2022/08/01 09:46:05;;;;;;;0.88;0.50;;;;;;;24.03;59.25;101703.38;5053247;28;20048;-72
2022/08/01 09:48:53;;;;;;;1.67;0.50;;;;;;;24.09;57.97;101702.06;5060206;28;20052;-73
2022/08/01 09:51:33;;;;;;;0.85;0.50;;;;;;;23.89;57.64;101712.44;5051987;28;20038;-74
2022/08/01 09:54:32;;;;;;;3.22;0.40;;;;;;;23.94;57.74;101706.72;5053754;28;20041;-73
2022/08/01 09:57:14;;;;;;;1.05;0.40;;;;;;;24.04;57.66;101698.88;5049921;28;20047;-74
2022/08/01 09:59:47;;;;;;;0.90;0.70;;;;;;;24.26;56.89;101703.50;5046983;28;20566;-73
2022/08/01 10:02:37;;;;;;;;;;;;;;;24.49;55.90;101701.75;5052456;28;20073;-74
2022/08/01 10:05:07;;;;;;;0.32;0.30;;;;;;;24.55;55.57;101702.28;5052832;28;19929;-74
2022/08/01 10:07:56;;;;;;;0.52;0.50;;;;;;;24.24;56.69;101704.59;5053613;28;20651;-73
2022/08/01 10:10:26;;;;;;;1.05;0.40;;;;;;;24.09;57.28;101712.00;5048733;28;20038;-73
2022/08/01 10:12:59;;;;;;;3.55;0.50;;;;;;;23.99;58.94;101709.13;5050445;28;20057;-73
2022/08/01 10:15:28;;;;;;;1.92;0.68;;;;;;;24.09;58.85;101702.06;5053097;28;20046;-73
2022/08/01 10:18:09;;;;;;;4.10;0.90;;;;;;;24.26;58.45;101698.13;5053470;28;20048;-72
2022/08/01 10:20:54;;;;;;;1.80;0.70;;;;;;;24.52;57.28;101703.34;5050994;28;20050;-72
2022/08/01 10:23:27;;;;;;;5.47;0.60;;;;;;;24.81;56.88;101701.16;5052465;28;20531;-72
2022/08/01 10:26:10;;;;;;;1.55;0.50;;;;;;;25.06;55.03;101698.38;5052905;28;20099;-73
2022/08/01 10:28:43;;;;;;;0.65;0.50;;;;;;;25.01;55.86;101704.13;5053205;28;20049;-72
2022/08/01 10:31:11;;;;;;;;;;;;;;;25.04;55.69;101703.91;5052416;28;20058;-72
2022/08/01 10:33:41;;;;;;;6.82;0.80;;;;;;;24.94;56.16;101705.59;5052657;28;20005;-72
2022/08/01 10:36:20;;;;;;;4.40;0.80;;;;;;;24.86;57.07;101710.75;5055753;28;20041;-72
2022/08/01 10:38:50;;;;;;;1.48;0.57;;;;;;;24.76;55.94;101716.84;5053466;28;20500;-72
2022/08/01 10:41:18;;;;;;;7.53;2.15;;;;;;;24.75;55.14;101714.25;5051342;28;20087;-72
2022/08/01 10:43:46;;;;;;;4.88;1.23;;;;;;;24.52;57.22;101711.44;5052848;28;20046;-72
2022/08/01 10:46:15;;;;;;;2.13;0.90;;;;;;;24.47;57.29;101719.88;5051616;28;20567;-73
2022/08/01 10:48:56;;;;;;;6.57;1.10;;;;;;;24.39;57.46;101714.22;5050804;28;20100;-72
2022/08/01 10:51:27;;;;;;;2.67;0.70;;;;;;;24.30;58.05;101723.88;5052700;28;20147;-72
2022/08/01 10:54:14;;;;;;;1.35;0.65;;;;;;;24.22;57.48;101725.41;5050554;28;20179;-72
2022/08/01 10:56:50;;;;;;;2.05;0.60;;;;;;;24.12;56.41;101726.09;5052313;28;20049;-72
2022/08/01 10:59:26;;;;;;;1.58;0.70;;;;;;;23.77;58.15;101718.72;5051844;28;20041;-72
2022/08/01 11:02:28;;;;;;;2.47;1.20;;;;;;;23.29;61.72;101723.97;5052057;28;20120;-72
2022/08/01 11:05:21;;;;;;;3.47;1.10;;;;;;;22.80;62.66;101739.81;5046698;28;20073;-72
2022/08/01 11:07:54;;;;;;;3.42;0.70;;;;;;;22.29;63.82;101740.47;5051477;28;20048;-73
2022/08/01 11:10:40;;;;;;;1.98;0.90;;;;;;;21.93;66.54;101739.25;5052554;28;20045;-72
2022/08/01 11:13:11;;;;;;;4.07;1.60;;;;;;;21.67;68.40;101742.63;5051620;28;20045;-72
2022/08/01 11:15:41;;;;;;;3.60;1.23;;;;;;;21.58;69.67;101751.25;5050394;28;20091;-71
2022/08/01 11:18:31;;;;;;;1.17;0.65;;;;;;;21.60;67.64;101748.47;5051347;28;20464;-72
2022/08/01 11:21:02;;;;;;;1.77;0.88;;;;;;;21.53;68.58;101742.59;5047714;28;20049;-71
2022/08/01 11:23:54;;;;;;;1.88;0.80;;;;;;;21.70;67.62;101755.00;5065529;28;20080;-71
2022/08/01 11:26:23;;;;;;;2.35;0.77;;;;;;;21.71;68.41;101746.88;5049601;28;20120;-71
2022/08/01 11:29:17;;;;;;;2.15;1.00;;;;;;;22.13;67.90;101736.13;5051410;28;20047;-71
2022/08/01 11:31:50;;;;;;;2.75;0.80;;;;;;;22.51;66.54;101744.47;5051865;28;20038;-72
2022/08/01 11:34:17;;;;;;;1.27;0.98;;;;;;;22.88;63.44;101747.38;5050110;28;20045;-71
2022/08/01 11:36:46;;;;;;;2.42;0.90;;;;;;;23.08;61.06;101752.25;5049967;28;20119;-72
2022/08/01 11:39:29;;;;;;;2.67;0.80;;;;;;;23.04;61.88;101761.47;5062787;28;20111;-71
2022/08/01 11:42:19;;;;;;;1.33;0.60;;;;;;;23.24;60.04;101759.25;5050578;28;20112;-72
2022/08/01 11:44:50;;;;;;;0.98;0.60;;;;;;;23.22;59.80;101755.81;5045116;28;20045;-71